Voorhies, Iowa
Current Conditions -  °F | °C
As of 8:54 PM on Wednesday 22 Oct 2014 (Local Time) from KALO Reporting Station
Broken Clouds Broken Clouds  
Wind Chill: 54°   Ceiling: 7500
Heat Index: 54°   Visibility: 10mi
Dew Point: 39°   Wind: 15mph
Humidity: 57%   Direction: 150°SSE
Pressure: 30.14"   Gusts: 21mph
Location:  42.351°N, 92.4663°W
Report Text: KALO 230154Z 15013G18KT 10SM SCT038 BKN075 12/04 A3014 RMK AO2 SLP210 T01220039
Loading
Personal Weather Stations






























Interactive Weather Map
Tropical Storm Tracking
New forecast layout! Learn more

10-Day Weather Forecast

Advertisements
Track Severe Weather on mobile